<?xml version="1.0" encoding="UTF-8" standalone="no" ?>
<gpx xmlns="http://www.topografix.com/GPX/1/1" xmlns:xsi="http://www.w3.org/2001/XMLSchema-instance" xsi:schemaLocation="http://www.topografix.com/GPX/1/1 http://www.topografix.com/GPX/1/1/gpx.xsd" version="1.1" creator="VisuGPX - https://www.visugpx.com">
  <metadata>
    <name>EUGENIE LES BAINS 13/7/16</name>
  </metadata>
  <wpt lat="43.70763" lon="-0.39526">
    <ele>89</ele>
    <name><![CDATA[fumier ]]></name>
  </wpt>
  <wpt lat="43.71271" lon="-0.40318">
    <ele>85</ele>
    <name><![CDATA[silo]]></name>
  </wpt>
  <wpt lat="43.71375" lon="-0.39765">
    <ele>129</ele>
    <name><![CDATA[bâtiment en pierres sans fenêtre toiture neuve ]]></name>
  </wpt>
  <wpt lat="43.71215" lon="-0.38969">
    <ele>138</ele>
    <name><![CDATA[tas de pneumatiques ]]></name>
  </wpt>
  <wpt lat="43.71393" lon="-0.38528">
    <ele>140</ele>
    <name><![CDATA[trois silos blancs]]></name>
  </wpt>
  <trk>
    <name><![CDATA[EUGENIE LES BAINS 13/7/16]]></name>
    <trkseg>
      <trkpt lat="43.69642" lon="-0.37735">
        <ele>95</ele>
        <time>2016-07-13T12:41:38+02:00</time>
      </trkpt>
      <trkpt lat="43.69658" lon="-0.37758">
        <ele>95</ele>
        <time>2016-07-13T12:42:18+02:00</time>
      </trkpt>
      <trkpt lat="43.6968" lon="-0.3777">
        <ele>95</ele>
        <time>2016-07-13T12:42:39+02:00</time>
      </trkpt>
      <trkpt lat="43.69701" lon="-0.37783">
        <ele>95</ele>
        <time>2016-07-13T12:43:14+02:00</time>
      </trkpt>
      <trkpt lat="43.69721" lon="-0.37797">
        <ele>95</ele>
        <time>2016-07-13T12:43:44+02:00</time>
      </trkpt>
      <trkpt lat="43.69736" lon="-0.37822">
        <ele>95</ele>
        <time>2016-07-13T12:44:07+02:00</time>
      </trkpt>
      <trkpt lat="43.69754" lon="-0.37843">
        <ele>95</ele>
        <time>2016-07-13T12:44:24+02:00</time>
      </trkpt>
      <trkpt lat="43.69765" lon="-0.3787">
        <ele>94</ele>
        <time>2016-07-13T12:44:41+02:00</time>
      </trkpt>
      <trkpt lat="43.69772" lon="-0.37901">
        <ele>94</ele>
        <time>2016-07-13T12:44:55+02:00</time>
      </trkpt>
      <trkpt lat="43.69785" lon="-0.37928">
        <ele>94</ele>
        <time>2016-07-13T12:45:14+02:00</time>
      </trkpt>
      <trkpt lat="43.69796" lon="-0.37956">
        <ele>94</ele>
        <time>2016-07-13T12:45:32+02:00</time>
      </trkpt>
      <trkpt lat="43.69818" lon="-0.37965">
        <ele>94</ele>
        <time>2016-07-13T12:45:56+02:00</time>
      </trkpt>
      <trkpt lat="43.69838" lon="-0.37981">
        <ele>94</ele>
        <time>2016-07-13T12:46:15+02:00</time>
      </trkpt>
      <trkpt lat="43.69855" lon="-0.38002">
        <ele>94</ele>
        <time>2016-07-13T12:46:38+02:00</time>
      </trkpt>
      <trkpt lat="43.69876" lon="-0.38016">
        <ele>94</ele>
        <time>2016-07-13T12:47:02+02:00</time>
      </trkpt>
      <trkpt lat="43.69898" lon="-0.38014">
        <ele>94</ele>
        <time>2016-07-13T12:47:21+02:00</time>
      </trkpt>
      <trkpt lat="43.69917" lon="-0.37997">
        <ele>94</ele>
        <time>2016-07-13T12:48:05+02:00</time>
      </trkpt>
      <trkpt lat="43.69941" lon="-0.37996">
        <ele>94</ele>
        <time>2016-07-13T12:48:29+02:00</time>
      </trkpt>
      <trkpt lat="43.69961" lon="-0.3801">
        <ele>94</ele>
        <time>2016-07-13T12:49:01+02:00</time>
      </trkpt>
      <trkpt lat="43.69978" lon="-0.38032">
        <ele>94</ele>
        <time>2016-07-13T12:49:22+02:00</time>
      </trkpt>
      <trkpt lat="43.69995" lon="-0.38054">
        <ele>94</ele>
        <time>2016-07-13T12:49:36+02:00</time>
      </trkpt>
      <trkpt lat="43.70011" lon="-0.38081">
        <ele>94</ele>
        <time>2016-07-13T12:49:39+02:00</time>
      </trkpt>
      <trkpt lat="43.70029" lon="-0.38101">
        <ele>95</ele>
        <time>2016-07-13T12:50:40+02:00</time>
      </trkpt>
      <trkpt lat="43.70045" lon="-0.38125">
        <ele>95</ele>
        <time>2016-07-13T12:50:57+02:00</time>
      </trkpt>
      <trkpt lat="43.70062" lon="-0.38146">
        <ele>94</ele>
        <time>2016-07-13T12:51:17+02:00</time>
      </trkpt>
      <trkpt lat="43.70079" lon="-0.38167">
        <ele>95</ele>
        <time>2016-07-13T12:51:32+02:00</time>
      </trkpt>
      <trkpt lat="43.70095" lon="-0.38191">
        <ele>95</ele>
        <time>2016-07-13T12:51:46+02:00</time>
      </trkpt>
      <trkpt lat="43.70112" lon="-0.38212">
        <ele>94</ele>
        <time>2016-07-13T12:52:03+02:00</time>
      </trkpt>
      <trkpt lat="43.70129" lon="-0.38234">
        <ele>95</ele>
        <time>2016-07-13T12:52:19+02:00</time>
      </trkpt>
      <trkpt lat="43.70148" lon="-0.38253">
        <ele>96</ele>
        <time>2016-07-13T12:52:41+02:00</time>
      </trkpt>
      <trkpt lat="43.70166" lon="-0.38272">
        <ele>96</ele>
        <time>2016-07-13T12:53:04+02:00</time>
      </trkpt>
      <trkpt lat="43.70181" lon="-0.38295">
        <ele>97</ele>
        <time>2016-07-13T12:53:24+02:00</time>
      </trkpt>
      <trkpt lat="43.70191" lon="-0.38325">
        <ele>96</ele>
        <time>2016-07-13T12:53:44+02:00</time>
      </trkpt>
      <trkpt lat="43.70195" lon="-0.38358">
        <ele>94</ele>
        <time>2016-07-13T12:54:03+02:00</time>
      </trkpt>
      <trkpt lat="43.70206" lon="-0.38386">
        <ele>94</ele>
        <time>2016-07-13T12:54:19+02:00</time>
      </trkpt>
      <trkpt lat="43.7022" lon="-0.3841">
        <ele>94</ele>
        <time>2016-07-13T12:54:37+02:00</time>
      </trkpt>
      <trkpt lat="43.70235" lon="-0.38433">
        <ele>95</ele>
        <time>2016-07-13T12:54:54+02:00</time>
      </trkpt>
      <trkpt lat="43.70248" lon="-0.3846">
        <ele>94</ele>
        <time>2016-07-13T12:55:12+02:00</time>
      </trkpt>
      <trkpt lat="43.7026" lon="-0.38486">
        <ele>94</ele>
        <time>2016-07-13T12:55:31+02:00</time>
      </trkpt>
      <trkpt lat="43.70276" lon="-0.38511">
        <ele>94</ele>
        <time>2016-07-13T12:55:52+02:00</time>
      </trkpt>
      <trkpt lat="43.70292" lon="-0.38535">
        <ele>94</ele>
        <time>2016-07-13T12:56:13+02:00</time>
      </trkpt>
      <trkpt lat="43.70305" lon="-0.3856">
        <ele>95</ele>
        <time>2016-07-13T12:56:41+02:00</time>
      </trkpt>
      <trkpt lat="43.70321" lon="-0.38583">
        <ele>96</ele>
        <time>2016-07-13T12:56:59+02:00</time>
      </trkpt>
      <trkpt lat="43.70334" lon="-0.38608">
        <ele>99</ele>
        <time>2016-07-13T12:57:12+02:00</time>
      </trkpt>
      <trkpt lat="43.70347" lon="-0.38634">
        <ele>99</ele>
        <time>2016-07-13T12:57:31+02:00</time>
      </trkpt>
      <trkpt lat="43.70357" lon="-0.38663">
        <ele>98</ele>
        <time>2016-07-13T12:57:45+02:00</time>
      </trkpt>
      <trkpt lat="43.70368" lon="-0.38692">
        <ele>98</ele>
        <time>2016-07-13T12:58:05+02:00</time>
      </trkpt>
      <trkpt lat="43.70375" lon="-0.38723">
        <ele>96</ele>
        <time>2016-07-13T12:58:21+02:00</time>
      </trkpt>
      <trkpt lat="43.7038" lon="-0.38754">
        <ele>94</ele>
        <time>2016-07-13T12:58:43+02:00</time>
      </trkpt>
      <trkpt lat="43.70392" lon="-0.38782">
        <ele>92</ele>
        <time>2016-07-13T12:59:03+02:00</time>
      </trkpt>
      <trkpt lat="43.70404" lon="-0.3881">
        <ele>92</ele>
        <time>2016-07-13T12:59:19+02:00</time>
      </trkpt>
      <trkpt lat="43.70416" lon="-0.38838">
        <ele>91</ele>
        <time>2016-07-13T12:59:37+02:00</time>
      </trkpt>
      <trkpt lat="43.7043" lon="-0.38864">
        <ele>91</ele>
        <time>2016-07-13T12:59:56+02:00</time>
      </trkpt>
      <trkpt lat="43.70442" lon="-0.38891">
        <ele>90</ele>
        <time>2016-07-13T13:00:14+02:00</time>
      </trkpt>
      <trkpt lat="43.70454" lon="-0.38919">
        <ele>91</ele>
        <time>2016-07-13T13:00:33+02:00</time>
      </trkpt>
      <trkpt lat="43.70465" lon="-0.38949">
        <ele>91</ele>
        <time>2016-07-13T13:00:51+02:00</time>
      </trkpt>
      <trkpt lat="43.70474" lon="-0.38977">
        <ele>90</ele>
        <time>2016-07-13T13:01:06+02:00</time>
      </trkpt>
      <trkpt lat="43.70483" lon="-0.39006">
        <ele>91</ele>
        <time>2016-07-13T13:01:23+02:00</time>
      </trkpt>
      <trkpt lat="43.70491" lon="-0.39036">
        <ele>91</ele>
        <time>2016-07-13T13:01:39+02:00</time>
      </trkpt>
      <trkpt lat="43.70499" lon="-0.39067">
        <ele>90</ele>
        <time>2016-07-13T13:01:56+02:00</time>
      </trkpt>
      <trkpt lat="43.7051" lon="-0.39095">
        <ele>91</ele>
        <time>2016-07-13T13:02:11+02:00</time>
      </trkpt>
      <trkpt lat="43.70518" lon="-0.39125">
        <ele>90</ele>
        <time>2016-07-13T13:02:29+02:00</time>
      </trkpt>
      <trkpt lat="43.70531" lon="-0.39151">
        <ele>91</ele>
        <time>2016-07-13T13:02:44+02:00</time>
      </trkpt>
      <trkpt lat="43.70544" lon="-0.3918">
        <ele>90</ele>
        <time>2016-07-13T13:02:59+02:00</time>
      </trkpt>
      <trkpt lat="43.70561" lon="-0.392">
        <ele>90</ele>
        <time>2016-07-13T13:03:09+02:00</time>
      </trkpt>
      <trkpt lat="43.70582" lon="-0.39217">
        <ele>90</ele>
        <time>2016-07-13T13:03:28+02:00</time>
      </trkpt>
      <trkpt lat="43.70599" lon="-0.39236">
        <ele>90</ele>
        <time>2016-07-13T13:03:48+02:00</time>
      </trkpt>
      <trkpt lat="43.70613" lon="-0.39262">
        <ele>90</ele>
        <time>2016-07-13T13:04:04+02:00</time>
      </trkpt>
      <trkpt lat="43.70624" lon="-0.39289">
        <ele>90</ele>
        <time>2016-07-13T13:04:21+02:00</time>
      </trkpt>
      <trkpt lat="43.70634" lon="-0.39317">
        <ele>90</ele>
        <time>2016-07-13T13:04:38+02:00</time>
      </trkpt>
      <trkpt lat="43.7065" lon="-0.3934">
        <ele>90</ele>
        <time>2016-07-13T13:04:55+02:00</time>
      </trkpt>
      <trkpt lat="43.70667" lon="-0.39362">
        <ele>91</ele>
        <time>2016-07-13T13:05:12+02:00</time>
      </trkpt>
      <trkpt lat="43.7068" lon="-0.39389">
        <ele>92</ele>
        <time>2016-07-13T13:05:30+02:00</time>
      </trkpt>
      <trkpt lat="43.70688" lon="-0.3942">
        <ele>92</ele>
        <time>2016-07-13T13:05:46+02:00</time>
      </trkpt>
      <trkpt lat="43.70697" lon="-0.39449">
        <ele>91</ele>
        <time>2016-07-13T13:06:03+02:00</time>
      </trkpt>
      <trkpt lat="43.70704" lon="-0.3948">
        <ele>90</ele>
        <time>2016-07-13T13:06:19+02:00</time>
      </trkpt>
      <trkpt lat="43.70719" lon="-0.39504">
        <ele>89</ele>
        <time>2016-07-13T13:06:38+02:00</time>
      </trkpt>
      <trkpt lat="43.7074" lon="-0.39517">
        <ele>89</ele>
        <time>2016-07-13T13:06:55+02:00</time>
      </trkpt>
      <trkpt lat="43.70763" lon="-0.39526">
        <ele>89</ele>
        <time>2016-07-13T13:07:13+02:00</time>
      </trkpt>
      <trkpt lat="43.70776" lon="-0.39552">
        <ele>87</ele>
        <time>2016-07-13T13:07:34+02:00</time>
      </trkpt>
      <trkpt lat="43.70779" lon="-0.39583">
        <ele>85</ele>
        <time>2016-07-13T13:07:50+02:00</time>
      </trkpt>
      <trkpt lat="43.70781" lon="-0.39614">
        <ele>85</ele>
        <time>2016-07-13T13:08:09+02:00</time>
      </trkpt>
      <trkpt lat="43.70779" lon="-0.39647">
        <ele>85</ele>
        <time>2016-07-13T13:08:26+02:00</time>
      </trkpt>
      <trkpt lat="43.7077" lon="-0.39677">
        <ele>85</ele>
        <time>2016-07-13T13:08:45+02:00</time>
      </trkpt>
      <trkpt lat="43.70761" lon="-0.39706">
        <ele>85</ele>
        <time>2016-07-13T13:09:02+02:00</time>
      </trkpt>
      <trkpt lat="43.70751" lon="-0.39736">
        <ele>85</ele>
        <time>2016-07-13T13:09:19+02:00</time>
      </trkpt>
      <trkpt lat="43.70753" lon="-0.39767">
        <ele>85</ele>
        <time>2016-07-13T13:09:35+02:00</time>
      </trkpt>
      <trkpt lat="43.70764" lon="-0.39794">
        <ele>85</ele>
        <time>2016-07-13T13:09:50+02:00</time>
      </trkpt>
      <trkpt lat="43.70777" lon="-0.39821">
        <ele>85</ele>
        <time>2016-07-13T13:10:07+02:00</time>
      </trkpt>
      <trkpt lat="43.7079" lon="-0.39848">
        <ele>84</ele>
        <time>2016-07-13T13:10:24+02:00</time>
      </trkpt>
      <trkpt lat="43.70804" lon="-0.39873">
        <ele>84</ele>
        <time>2016-07-13T13:11:04+02:00</time>
      </trkpt>
      <trkpt lat="43.70819" lon="-0.39898">
        <ele>84</ele>
        <time>2016-07-13T13:11:23+02:00</time>
      </trkpt>
      <trkpt lat="43.70832" lon="-0.39924">
        <ele>84</ele>
        <time>2016-07-13T13:11:42+02:00</time>
      </trkpt>
      <trkpt lat="43.70845" lon="-0.3995">
        <ele>84</ele>
        <time>2016-07-13T13:12:39+02:00</time>
      </trkpt>
      <trkpt lat="43.70853" lon="-0.3998">
        <ele>84</ele>
        <time>2016-07-13T13:12:55+02:00</time>
      </trkpt>
      <trkpt lat="43.70866" lon="-0.40006">
        <ele>84</ele>
        <time>2016-07-13T13:13:13+02:00</time>
      </trkpt>
      <trkpt lat="43.70879" lon="-0.40032">
        <ele>84</ele>
        <time>2016-07-13T13:13:31+02:00</time>
      </trkpt>
      <trkpt lat="43.70888" lon="-0.40061">
        <ele>84</ele>
        <time>2016-07-13T13:13:46+02:00</time>
      </trkpt>
      <trkpt lat="43.70897" lon="-0.40089">
        <ele>84</ele>
        <time>2016-07-13T13:14:02+02:00</time>
      </trkpt>
      <trkpt lat="43.7091" lon="-0.40115">
        <ele>84</ele>
        <time>2016-07-13T13:14:23+02:00</time>
      </trkpt>
      <trkpt lat="43.70928" lon="-0.40134">
        <ele>84</ele>
        <time>2016-07-13T13:14:45+02:00</time>
      </trkpt>
      <trkpt lat="43.70946" lon="-0.40154">
        <ele>84</ele>
        <time>2016-07-13T13:15:03+02:00</time>
      </trkpt>
      <trkpt lat="43.70961" lon="-0.40178">
        <ele>83</ele>
        <time>2016-07-13T13:15:21+02:00</time>
      </trkpt>
      <trkpt lat="43.70975" lon="-0.40203">
        <ele>83</ele>
        <time>2016-07-13T13:15:38+02:00</time>
      </trkpt>
      <trkpt lat="43.70988" lon="-0.40229">
        <ele>82</ele>
        <time>2016-07-13T13:15:53+02:00</time>
      </trkpt>
      <trkpt lat="43.71004" lon="-0.40252">
        <ele>82</ele>
        <time>2016-07-13T13:16:12+02:00</time>
      </trkpt>
      <trkpt lat="43.71011" lon="-0.40283">
        <ele>82</ele>
        <time>2016-07-13T13:16:29+02:00</time>
      </trkpt>
      <trkpt lat="43.71022" lon="-0.40311">
        <ele>81</ele>
        <time>2016-07-13T13:16:47+02:00</time>
      </trkpt>
      <trkpt lat="43.71038" lon="-0.40335">
        <ele>81</ele>
        <time>2016-07-13T13:17:07+02:00</time>
      </trkpt>
      <trkpt lat="43.71056" lon="-0.40357">
        <ele>80</ele>
        <time>2016-07-13T13:17:26+02:00</time>
      </trkpt>
      <trkpt lat="43.71073" lon="-0.40378">
        <ele>80</ele>
        <time>2016-07-13T13:17:41+02:00</time>
      </trkpt>
      <trkpt lat="43.71091" lon="-0.40401">
        <ele>80</ele>
        <time>2016-07-13T13:17:57+02:00</time>
      </trkpt>
      <trkpt lat="43.71109" lon="-0.4042">
        <ele>80</ele>
        <time>2016-07-13T13:18:13+02:00</time>
      </trkpt>
      <trkpt lat="43.71125" lon="-0.40443">
        <ele>80</ele>
        <time>2016-07-13T13:18:31+02:00</time>
      </trkpt>
      <trkpt lat="43.71139" lon="-0.40473">
        <ele>80</ele>
        <time>2016-07-13T13:18:47+02:00</time>
      </trkpt>
      <trkpt lat="43.71151" lon="-0.40499">
        <ele>80</ele>
        <time>2016-07-13T13:19:00+02:00</time>
      </trkpt>
      <trkpt lat="43.71173" lon="-0.4049">
        <ele>80</ele>
        <time>2016-07-13T13:19:34+02:00</time>
      </trkpt>
      <trkpt lat="43.71178" lon="-0.40458">
        <ele>80</ele>
        <time>2016-07-13T13:19:56+02:00</time>
      </trkpt>
      <trkpt lat="43.7119" lon="-0.40432">
        <ele>80</ele>
        <time>2016-07-13T13:20:16+02:00</time>
      </trkpt>
      <trkpt lat="43.71203" lon="-0.40406">
        <ele>80</ele>
        <time>2016-07-13T13:20:34+02:00</time>
      </trkpt>
      <trkpt lat="43.71219" lon="-0.40382">
        <ele>81</ele>
        <time>2016-07-13T13:20:50+02:00</time>
      </trkpt>
      <trkpt lat="43.71236" lon="-0.40361">
        <ele>82</ele>
        <time>2016-07-13T13:21:02+02:00</time>
      </trkpt>
      <trkpt lat="43.71255" lon="-0.40343">
        <ele>84</ele>
        <time>2016-07-13T13:21:20+02:00</time>
      </trkpt>
      <trkpt lat="43.71271" lon="-0.40318">
        <ele>85</ele>
        <time>2016-07-13T13:21:35+02:00</time>
      </trkpt>
      <trkpt lat="43.71288" lon="-0.40297">
        <ele>87</ele>
        <time>2016-07-13T13:21:49+02:00</time>
      </trkpt>
      <trkpt lat="43.71302" lon="-0.40272">
        <ele>90</ele>
        <time>2016-07-13T13:22:07+02:00</time>
      </trkpt>
      <trkpt lat="43.71313" lon="-0.40244">
        <ele>92</ele>
        <time>2016-07-13T13:22:27+02:00</time>
      </trkpt>
      <trkpt lat="43.71325" lon="-0.40217">
        <ele>94</ele>
        <time>2016-07-13T13:22:44+02:00</time>
      </trkpt>
      <trkpt lat="43.71339" lon="-0.40193">
        <ele>97</ele>
        <time>2016-07-13T13:23:04+02:00</time>
      </trkpt>
      <trkpt lat="43.71355" lon="-0.4017">
        <ele>99</ele>
        <time>2016-07-13T13:23:27+02:00</time>
      </trkpt>
      <trkpt lat="43.71371" lon="-0.40147">
        <ele>101</ele>
        <time>2016-07-13T13:23:50+02:00</time>
      </trkpt>
      <trkpt lat="43.71386" lon="-0.40123">
        <ele>103</ele>
        <time>2016-07-13T13:24:13+02:00</time>
      </trkpt>
      <trkpt lat="43.71401" lon="-0.40098">
        <ele>106</ele>
        <time>2016-07-13T13:24:35+02:00</time>
      </trkpt>
      <trkpt lat="43.71418" lon="-0.40076">
        <ele>109</ele>
        <time>2016-07-13T13:24:55+02:00</time>
      </trkpt>
      <trkpt lat="43.71436" lon="-0.40054">
        <ele>113</ele>
        <time>2016-07-13T13:25:22+02:00</time>
      </trkpt>
      <trkpt lat="43.71456" lon="-0.40037">
        <ele>115</ele>
        <time>2016-07-13T13:25:44+02:00</time>
      </trkpt>
      <trkpt lat="43.71475" lon="-0.4002">
        <ele>117</ele>
        <time>2016-07-13T13:26:06+02:00</time>
      </trkpt>
      <trkpt lat="43.71491" lon="-0.39996">
        <ele>119</ele>
        <time>2016-07-13T13:26:29+02:00</time>
      </trkpt>
      <trkpt lat="43.71492" lon="-0.39964">
        <ele>120</ele>
        <time>2016-07-13T13:26:41+02:00</time>
      </trkpt>
      <trkpt lat="43.71483" lon="-0.39935">
        <ele>122</ele>
        <time>2016-07-13T13:26:56+02:00</time>
      </trkpt>
      <trkpt lat="43.7147" lon="-0.3991">
        <ele>124</ele>
        <time>2016-07-13T13:27:15+02:00</time>
      </trkpt>
      <trkpt lat="43.71453" lon="-0.39887">
        <ele>124</ele>
        <time>2016-07-13T13:27:36+02:00</time>
      </trkpt>
      <trkpt lat="43.71436" lon="-0.39865">
        <ele>125</ele>
        <time>2016-07-13T13:27:53+02:00</time>
      </trkpt>
      <trkpt lat="43.7142" lon="-0.39843">
        <ele>126</ele>
        <time>2016-07-13T13:28:14+02:00</time>
      </trkpt>
      <trkpt lat="43.71406" lon="-0.39817">
        <ele>127</ele>
        <time>2016-07-13T13:28:36+02:00</time>
      </trkpt>
      <trkpt lat="43.71391" lon="-0.39791">
        <ele>129</ele>
        <time>2016-07-13T13:28:54+02:00</time>
      </trkpt>
      <trkpt lat="43.71375" lon="-0.39765">
        <ele>129</ele>
        <time>2016-07-13T13:29:12+02:00</time>
      </trkpt>
      <trkpt lat="43.71359" lon="-0.39744">
        <ele>129</ele>
        <time>2016-07-13T13:29:29+02:00</time>
      </trkpt>
      <trkpt lat="43.71344" lon="-0.3972">
        <ele>129</ele>
        <time>2016-07-13T13:29:49+02:00</time>
      </trkpt>
      <trkpt lat="43.7133" lon="-0.39696">
        <ele>130</ele>
        <time>2016-07-13T13:30:09+02:00</time>
      </trkpt>
      <trkpt lat="43.71318" lon="-0.39668">
        <ele>129</ele>
        <time>2016-07-13T13:30:29+02:00</time>
      </trkpt>
      <trkpt lat="43.71306" lon="-0.39641">
        <ele>130</ele>
        <time>2016-07-13T13:30:47+02:00</time>
      </trkpt>
      <trkpt lat="43.71299" lon="-0.3961">
        <ele>130</ele>
        <time>2016-07-13T13:31:06+02:00</time>
      </trkpt>
      <trkpt lat="43.71293" lon="-0.3958">
        <ele>130</ele>
        <time>2016-07-13T13:31:25+02:00</time>
      </trkpt>
      <trkpt lat="43.71285" lon="-0.39551">
        <ele>130</ele>
        <time>2016-07-13T13:31:43+02:00</time>
      </trkpt>
      <trkpt lat="43.71278" lon="-0.39521">
        <ele>130</ele>
        <time>2016-07-13T13:32:00+02:00</time>
      </trkpt>
      <trkpt lat="43.7127" lon="-0.39491">
        <ele>131</ele>
        <time>2016-07-13T13:32:19+02:00</time>
      </trkpt>
      <trkpt lat="43.71261" lon="-0.39462">
        <ele>131</ele>
        <time>2016-07-13T13:32:38+02:00</time>
      </trkpt>
      <trkpt lat="43.71254" lon="-0.39432">
        <ele>132</ele>
        <time>2016-07-13T13:32:56+02:00</time>
      </trkpt>
      <trkpt lat="43.71245" lon="-0.39401">
        <ele>133</ele>
        <time>2016-07-13T13:33:13+02:00</time>
      </trkpt>
      <trkpt lat="43.71237" lon="-0.39371">
        <ele>134</ele>
        <time>2016-07-13T13:33:33+02:00</time>
      </trkpt>
      <trkpt lat="43.71227" lon="-0.39342">
        <ele>134</ele>
        <time>2016-07-13T13:33:50+02:00</time>
      </trkpt>
      <trkpt lat="43.71224" lon="-0.3931">
        <ele>134</ele>
        <time>2016-07-13T13:34:16+02:00</time>
      </trkpt>
      <trkpt lat="43.71219" lon="-0.39279">
        <ele>134</ele>
        <time>2016-07-13T13:34:34+02:00</time>
      </trkpt>
      <trkpt lat="43.71216" lon="-0.39248">
        <ele>135</ele>
        <time>2016-07-13T13:34:50+02:00</time>
      </trkpt>
      <trkpt lat="43.71214" lon="-0.39216">
        <ele>136</ele>
        <time>2016-07-13T13:35:08+02:00</time>
      </trkpt>
      <trkpt lat="43.71212" lon="-0.39184">
        <ele>137</ele>
        <time>2016-07-13T13:35:26+02:00</time>
      </trkpt>
      <trkpt lat="43.7121" lon="-0.39153">
        <ele>137</ele>
        <time>2016-07-13T13:35:45+02:00</time>
      </trkpt>
      <trkpt lat="43.71206" lon="-0.39121">
        <ele>137</ele>
        <time>2016-07-13T13:36:05+02:00</time>
      </trkpt>
      <trkpt lat="43.71202" lon="-0.3909">
        <ele>137</ele>
        <time>2016-07-13T13:36:24+02:00</time>
      </trkpt>
      <trkpt lat="43.71198" lon="-0.39059">
        <ele>137</ele>
        <time>2016-07-13T13:36:43+02:00</time>
      </trkpt>
      <trkpt lat="43.71196" lon="-0.39028">
        <ele>137</ele>
        <time>2016-07-13T13:37:02+02:00</time>
      </trkpt>
      <trkpt lat="43.71207" lon="-0.38998">
        <ele>137</ele>
        <time>2016-07-13T13:37:21+02:00</time>
      </trkpt>
      <trkpt lat="43.71215" lon="-0.38969">
        <ele>138</ele>
        <time>2016-07-13T13:37:37+02:00</time>
      </trkpt>
      <trkpt lat="43.71225" lon="-0.38941">
        <ele>138</ele>
        <time>2016-07-13T13:37:56+02:00</time>
      </trkpt>
      <trkpt lat="43.71227" lon="-0.3891">
        <ele>138</ele>
        <time>2016-07-13T13:38:12+02:00</time>
      </trkpt>
      <trkpt lat="43.71225" lon="-0.38878">
        <ele>138</ele>
        <time>2016-07-13T13:38:30+02:00</time>
      </trkpt>
      <trkpt lat="43.7122" lon="-0.38847">
        <ele>139</ele>
        <time>2016-07-13T13:39:16+02:00</time>
      </trkpt>
      <trkpt lat="43.71222" lon="-0.38815">
        <ele>139</ele>
        <time>2016-07-13T13:39:45+02:00</time>
      </trkpt>
      <trkpt lat="43.71239" lon="-0.38795">
        <ele>139</ele>
        <time>2016-07-13T13:40:05+02:00</time>
      </trkpt>
      <trkpt lat="43.71261" lon="-0.38782">
        <ele>140</ele>
        <time>2016-07-13T13:40:23+02:00</time>
      </trkpt>
      <trkpt lat="43.71283" lon="-0.38769">
        <ele>140</ele>
        <time>2016-07-13T13:40:41+02:00</time>
      </trkpt>
      <trkpt lat="43.71301" lon="-0.3875">
        <ele>140</ele>
        <time>2016-07-13T13:40:58+02:00</time>
      </trkpt>
      <trkpt lat="43.71313" lon="-0.38723">
        <ele>140</ele>
        <time>2016-07-13T13:41:15+02:00</time>
      </trkpt>
      <trkpt lat="43.71313" lon="-0.38691">
        <ele>140</ele>
        <time>2016-07-13T13:41:30+02:00</time>
      </trkpt>
      <trkpt lat="43.7131" lon="-0.3866">
        <ele>140</ele>
        <time>2016-07-13T13:41:45+02:00</time>
      </trkpt>
      <trkpt lat="43.71307" lon="-0.38628">
        <ele>140</ele>
        <time>2016-07-13T13:42:01+02:00</time>
      </trkpt>
      <trkpt lat="43.71319" lon="-0.38602">
        <ele>140</ele>
        <time>2016-07-13T13:42:19+02:00</time>
      </trkpt>
      <trkpt lat="43.7134" lon="-0.38589">
        <ele>141</ele>
        <time>2016-07-13T13:42:39+02:00</time>
      </trkpt>
      <trkpt lat="43.71361" lon="-0.38573">
        <ele>140</ele>
        <time>2016-07-13T13:42:58+02:00</time>
      </trkpt>
      <trkpt lat="43.71378" lon="-0.38552">
        <ele>140</ele>
        <time>2016-07-13T13:43:15+02:00</time>
      </trkpt>
      <trkpt lat="43.71393" lon="-0.38528">
        <ele>140</ele>
        <time>2016-07-13T13:43:35+02:00</time>
      </trkpt>
      <trkpt lat="43.71407" lon="-0.38503">
        <ele>140</ele>
        <time>2016-07-13T13:43:49+02:00</time>
      </trkpt>
      <trkpt lat="43.71424" lon="-0.3848">
        <ele>140</ele>
        <time>2016-07-13T13:44:39+02:00</time>
      </trkpt>
      <trkpt lat="43.71438" lon="-0.38455">
        <ele>140</ele>
        <time>2016-07-13T13:46:33+02:00</time>
      </trkpt>
      <trkpt lat="43.71452" lon="-0.38429">
        <ele>140</ele>
        <time>2016-07-13T13:46:52+02:00</time>
      </trkpt>
      <trkpt lat="43.71454" lon="-0.38398">
        <ele>140</ele>
        <time>2016-07-13T13:49:16+02:00</time>
      </trkpt>
      <trkpt lat="43.71438" lon="-0.38375">
        <ele>140</ele>
        <time>2016-07-13T13:49:34+02:00</time>
      </trkpt>
      <trkpt lat="43.71423" lon="-0.38352">
        <ele>140</ele>
        <time>2016-07-13T13:49:51+02:00</time>
      </trkpt>
      <trkpt lat="43.71407" lon="-0.38329">
        <ele>140</ele>
        <time>2016-07-13T13:50:09+02:00</time>
      </trkpt>
      <trkpt lat="43.7139" lon="-0.38307">
        <ele>141</ele>
        <time>2016-07-13T13:50:27+02:00</time>
      </trkpt>
      <trkpt lat="43.71369" lon="-0.38294">
        <ele>141</ele>
        <time>2016-07-13T13:50:39+02:00</time>
      </trkpt>
      <trkpt lat="43.71349" lon="-0.38278">
        <ele>141</ele>
        <time>2016-07-13T13:50:55+02:00</time>
      </trkpt>
      <trkpt lat="43.71329" lon="-0.38261">
        <ele>142</ele>
        <time>2016-07-13T13:51:30+02:00</time>
      </trkpt>
      <trkpt lat="43.7131" lon="-0.38243">
        <ele>142</ele>
        <time>2016-07-13T13:51:51+02:00</time>
      </trkpt>
      <trkpt lat="43.7129" lon="-0.38226">
        <ele>142</ele>
        <time>2016-07-13T13:52:27+02:00</time>
      </trkpt>
      <trkpt lat="43.71271" lon="-0.38209">
        <ele>142</ele>
        <time>2016-07-13T13:52:47+02:00</time>
      </trkpt>
      <trkpt lat="43.71251" lon="-0.38192">
        <ele>142</ele>
        <time>2016-07-13T13:53:06+02:00</time>
      </trkpt>
      <trkpt lat="43.71237" lon="-0.38168">
        <ele>142</ele>
        <time>2016-07-13T13:53:26+02:00</time>
      </trkpt>
      <trkpt lat="43.71216" lon="-0.38153">
        <ele>142</ele>
        <time>2016-07-13T13:54:01+02:00</time>
      </trkpt>
      <trkpt lat="43.71199" lon="-0.38131">
        <ele>142</ele>
        <time>2016-07-13T13:54:19+02:00</time>
      </trkpt>
      <trkpt lat="43.71178" lon="-0.38116">
        <ele>141</ele>
        <time>2016-07-13T13:54:36+02:00</time>
      </trkpt>
      <trkpt lat="43.71161" lon="-0.38094">
        <ele>141</ele>
        <time>2016-07-13T13:54:53+02:00</time>
      </trkpt>
      <trkpt lat="43.71144" lon="-0.3807">
        <ele>141</ele>
        <time>2016-07-13T13:55:08+02:00</time>
      </trkpt>
      <trkpt lat="43.71131" lon="-0.38044">
        <ele>141</ele>
        <time>2016-07-13T13:55:27+02:00</time>
      </trkpt>
      <trkpt lat="43.71122" lon="-0.38016">
        <ele>141</ele>
        <time>2016-07-13T13:55:48+02:00</time>
      </trkpt>
      <trkpt lat="43.7111" lon="-0.37989">
        <ele>141</ele>
        <time>2016-07-13T13:56:06+02:00</time>
      </trkpt>
      <trkpt lat="43.711" lon="-0.37961">
        <ele>142</ele>
        <time>2016-07-13T13:56:23+02:00</time>
      </trkpt>
      <trkpt lat="43.71085" lon="-0.37937">
        <ele>141</ele>
        <time>2016-07-13T13:56:43+02:00</time>
      </trkpt>
      <trkpt lat="43.7107" lon="-0.37914">
        <ele>141</ele>
        <time>2016-07-13T13:56:59+02:00</time>
      </trkpt>
      <trkpt lat="43.71054" lon="-0.3789">
        <ele>141</ele>
        <time>2016-07-13T13:57:19+02:00</time>
      </trkpt>
      <trkpt lat="43.7104" lon="-0.37864">
        <ele>141</ele>
        <time>2016-07-13T13:57:39+02:00</time>
      </trkpt>
      <trkpt lat="43.71033" lon="-0.37833">
        <ele>141</ele>
        <time>2016-07-13T13:57:57+02:00</time>
      </trkpt>
      <trkpt lat="43.71021" lon="-0.37805">
        <ele>141</ele>
        <time>2016-07-13T13:58:15+02:00</time>
      </trkpt>
      <trkpt lat="43.71011" lon="-0.37775">
        <ele>141</ele>
        <time>2016-07-13T13:58:33+02:00</time>
      </trkpt>
      <trkpt lat="43.71" lon="-0.37748">
        <ele>141</ele>
        <time>2016-07-13T13:58:50+02:00</time>
      </trkpt>
      <trkpt lat="43.7099" lon="-0.37718">
        <ele>141</ele>
        <time>2016-07-13T13:59:12+02:00</time>
      </trkpt>
      <trkpt lat="43.7098" lon="-0.37689">
        <ele>140</ele>
        <time>2016-07-13T13:59:30+02:00</time>
      </trkpt>
      <trkpt lat="43.70967" lon="-0.37662">
        <ele>140</ele>
        <time>2016-07-13T13:59:48+02:00</time>
      </trkpt>
      <trkpt lat="43.70958" lon="-0.37633">
        <ele>140</ele>
        <time>2016-07-13T14:00:06+02:00</time>
      </trkpt>
      <trkpt lat="43.70954" lon="-0.37602">
        <ele>140</ele>
        <time>2016-07-13T14:00:26+02:00</time>
      </trkpt>
      <trkpt lat="43.70946" lon="-0.37572">
        <ele>140</ele>
        <time>2016-07-13T14:00:45+02:00</time>
      </trkpt>
      <trkpt lat="43.70941" lon="-0.3754">
        <ele>140</ele>
        <time>2016-07-13T14:01:14+02:00</time>
      </trkpt>
      <trkpt lat="43.70932" lon="-0.37508">
        <ele>140</ele>
        <time>2016-07-13T14:01:34+02:00</time>
      </trkpt>
      <trkpt lat="43.70929" lon="-0.37476">
        <ele>140</ele>
        <time>2016-07-13T14:01:57+02:00</time>
      </trkpt>
      <trkpt lat="43.70914" lon="-0.37453">
        <ele>140</ele>
        <time>2016-07-13T14:03:28+02:00</time>
      </trkpt>
      <trkpt lat="43.70891" lon="-0.37445">
        <ele>140</ele>
        <time>2016-07-13T14:03:44+02:00</time>
      </trkpt>
      <trkpt lat="43.70869" lon="-0.37434">
        <ele>140</ele>
        <time>2016-07-13T14:04:03+02:00</time>
      </trkpt>
      <trkpt lat="43.70847" lon="-0.37428">
        <ele>140</ele>
        <time>2016-07-13T14:05:37+02:00</time>
      </trkpt>
      <trkpt lat="43.70824" lon="-0.37422">
        <ele>140</ele>
        <time>2016-07-13T14:05:54+02:00</time>
      </trkpt>
      <trkpt lat="43.70802" lon="-0.37412">
        <ele>140</ele>
        <time>2016-07-13T14:06:08+02:00</time>
      </trkpt>
      <trkpt lat="43.7078" lon="-0.37405">
        <ele>140</ele>
        <time>2016-07-13T14:06:24+02:00</time>
      </trkpt>
      <trkpt lat="43.70759" lon="-0.37392">
        <ele>138</ele>
        <time>2016-07-13T14:06:42+02:00</time>
      </trkpt>
      <trkpt lat="43.70741" lon="-0.37371">
        <ele>137</ele>
        <time>2016-07-13T14:06:59+02:00</time>
      </trkpt>
      <trkpt lat="43.70721" lon="-0.37354">
        <ele>135</ele>
        <time>2016-07-13T14:07:15+02:00</time>
      </trkpt>
      <trkpt lat="43.70703" lon="-0.37332">
        <ele>135</ele>
        <time>2016-07-13T14:07:32+02:00</time>
      </trkpt>
      <trkpt lat="43.7068" lon="-0.37319">
        <ele>134</ele>
        <time>2016-07-13T14:07:46+02:00</time>
      </trkpt>
      <trkpt lat="43.70661" lon="-0.37303">
        <ele>134</ele>
        <time>2016-07-13T14:08:06+02:00</time>
      </trkpt>
      <trkpt lat="43.70641" lon="-0.37288">
        <ele>134</ele>
        <time>2016-07-13T14:08:24+02:00</time>
      </trkpt>
      <trkpt lat="43.7062" lon="-0.37275">
        <ele>134</ele>
        <time>2016-07-13T14:08:39+02:00</time>
      </trkpt>
      <trkpt lat="43.70597" lon="-0.37265">
        <ele>134</ele>
        <time>2016-07-13T14:09:04+02:00</time>
      </trkpt>
      <trkpt lat="43.70575" lon="-0.37261">
        <ele>135</ele>
        <time>2016-07-13T14:09:31+02:00</time>
      </trkpt>
      <trkpt lat="43.7055" lon="-0.3726">
        <ele>135</ele>
        <time>2016-07-13T14:09:49+02:00</time>
      </trkpt>
      <trkpt lat="43.70527" lon="-0.37264">
        <ele>136</ele>
        <time>2016-07-13T14:11:15+02:00</time>
      </trkpt>
      <trkpt lat="43.70505" lon="-0.37272">
        <ele>138</ele>
        <time>2016-07-13T14:11:43+02:00</time>
      </trkpt>
      <trkpt lat="43.70484" lon="-0.37284">
        <ele>139</ele>
        <time>2016-07-13T14:12:03+02:00</time>
      </trkpt>
      <trkpt lat="43.70462" lon="-0.37298">
        <ele>141</ele>
        <time>2016-07-13T14:12:21+02:00</time>
      </trkpt>
      <trkpt lat="43.70443" lon="-0.37313">
        <ele>142</ele>
        <time>2016-07-13T14:12:38+02:00</time>
      </trkpt>
      <trkpt lat="43.70423" lon="-0.3733">
        <ele>142</ele>
        <time>2016-07-13T14:12:55+02:00</time>
      </trkpt>
      <trkpt lat="43.70407" lon="-0.37353">
        <ele>142</ele>
        <time>2016-07-13T14:13:16+02:00</time>
      </trkpt>
      <trkpt lat="43.70391" lon="-0.37376">
        <ele>143</ele>
        <time>2016-07-13T14:13:43+02:00</time>
      </trkpt>
      <trkpt lat="43.70377" lon="-0.37401">
        <ele>143</ele>
        <time>2016-07-13T14:14:06+02:00</time>
      </trkpt>
      <trkpt lat="43.70365" lon="-0.37406">
        <ele>144</ele>
        <time>2016-07-13T14:15:05+02:00</time>
      </trkpt>
      <trkpt lat="43.7036" lon="-0.37436">
        <ele>144</ele>
        <time>2016-07-13T14:16:31+02:00</time>
      </trkpt>
      <trkpt lat="43.70356" lon="-0.37467">
        <ele>144</ele>
        <time>2016-07-13T14:16:53+02:00</time>
      </trkpt>
      <trkpt lat="43.70347" lon="-0.37497">
        <ele>145</ele>
        <time>2016-07-13T14:17:16+02:00</time>
      </trkpt>
      <trkpt lat="43.70335" lon="-0.37524">
        <ele>145</ele>
        <time>2016-07-13T14:17:31+02:00</time>
      </trkpt>
      <trkpt lat="43.70325" lon="-0.37553">
        <ele>145</ele>
        <time>2016-07-13T14:17:46+02:00</time>
      </trkpt>
      <trkpt lat="43.70312" lon="-0.37579">
        <ele>145</ele>
        <time>2016-07-13T14:18:02+02:00</time>
      </trkpt>
      <trkpt lat="43.703" lon="-0.37607">
        <ele>145</ele>
        <time>2016-07-13T14:18:22+02:00</time>
      </trkpt>
      <trkpt lat="43.70291" lon="-0.37636">
        <ele>144</ele>
        <time>2016-07-13T14:18:40+02:00</time>
      </trkpt>
      <trkpt lat="43.7028" lon="-0.37664">
        <ele>143</ele>
        <time>2016-07-13T14:18:57+02:00</time>
      </trkpt>
      <trkpt lat="43.70269" lon="-0.37694">
        <ele>143</ele>
        <time>2016-07-13T14:19:15+02:00</time>
      </trkpt>
      <trkpt lat="43.70258" lon="-0.37722">
        <ele>141</ele>
        <time>2016-07-13T14:19:31+02:00</time>
      </trkpt>
      <trkpt lat="43.70249" lon="-0.37752">
        <ele>141</ele>
        <time>2016-07-13T14:19:54+02:00</time>
      </trkpt>
      <trkpt lat="43.70239" lon="-0.37781">
        <ele>140</ele>
        <time>2016-07-13T14:20:10+02:00</time>
      </trkpt>
      <trkpt lat="43.70226" lon="-0.37809">
        <ele>136</ele>
        <time>2016-07-13T14:20:31+02:00</time>
      </trkpt>
      <trkpt lat="43.70211" lon="-0.37832">
        <ele>131</ele>
        <time>2016-07-13T14:20:41+02:00</time>
      </trkpt>
      <trkpt lat="43.70191" lon="-0.37848">
        <ele>128</ele>
        <time>2016-07-13T14:20:50+02:00</time>
      </trkpt>
      <trkpt lat="43.70174" lon="-0.37869">
        <ele>127</ele>
        <time>2016-07-13T14:21:00+02:00</time>
      </trkpt>
      <trkpt lat="43.70164" lon="-0.37897">
        <ele>125</ele>
        <time>2016-07-13T14:21:18+02:00</time>
      </trkpt>
      <trkpt lat="43.70162" lon="-0.3793">
        <ele>122</ele>
        <time>2016-07-13T14:21:35+02:00</time>
      </trkpt>
      <trkpt lat="43.70145" lon="-0.3795">
        <ele>123</ele>
        <time>2016-07-13T14:21:49+02:00</time>
      </trkpt>
      <trkpt lat="43.70121" lon="-0.37959">
        <ele>124</ele>
        <time>2016-07-13T14:21:59+02:00</time>
      </trkpt>
      <trkpt lat="43.701" lon="-0.37947">
        <ele>125</ele>
        <time>2016-07-13T14:22:09+02:00</time>
      </trkpt>
      <trkpt lat="43.70078" lon="-0.37938">
        <ele>124</ele>
        <time>2016-07-13T14:22:25+02:00</time>
      </trkpt>
      <trkpt lat="43.70057" lon="-0.37923">
        <ele>121</ele>
        <time>2016-07-13T14:22:41+02:00</time>
      </trkpt>
      <trkpt lat="43.70043" lon="-0.37897">
        <ele>121</ele>
        <time>2016-07-13T14:22:59+02:00</time>
      </trkpt>
      <trkpt lat="43.7003" lon="-0.3787">
        <ele>121</ele>
        <time>2016-07-13T14:23:17+02:00</time>
      </trkpt>
      <trkpt lat="43.70012" lon="-0.37851">
        <ele>118</ele>
        <time>2016-07-13T14:23:32+02:00</time>
      </trkpt>
      <trkpt lat="43.69992" lon="-0.37834">
        <ele>114</ele>
        <time>2016-07-13T14:23:51+02:00</time>
      </trkpt>
      <trkpt lat="43.69971" lon="-0.37819">
        <ele>113</ele>
        <time>2016-07-13T14:24:08+02:00</time>
      </trkpt>
      <trkpt lat="43.69948" lon="-0.37809">
        <ele>112</ele>
        <time>2016-07-13T14:24:34+02:00</time>
      </trkpt>
      <trkpt lat="43.69926" lon="-0.37797">
        <ele>111</ele>
        <time>2016-07-13T14:24:54+02:00</time>
      </trkpt>
      <trkpt lat="43.69905" lon="-0.37785">
        <ele>109</ele>
        <time>2016-07-13T14:25:12+02:00</time>
      </trkpt>
      <trkpt lat="43.69887" lon="-0.37765">
        <ele>109</ele>
        <time>2016-07-13T14:25:33+02:00</time>
      </trkpt>
      <trkpt lat="43.69867" lon="-0.37748">
        <ele>106</ele>
        <time>2016-07-13T14:25:52+02:00</time>
      </trkpt>
      <trkpt lat="43.69846" lon="-0.37734">
        <ele>103</ele>
        <time>2016-07-13T14:26:17+02:00</time>
      </trkpt>
      <trkpt lat="43.69827" lon="-0.37717">
        <ele>100</ele>
        <time>2016-07-13T14:26:38+02:00</time>
      </trkpt>
      <trkpt lat="43.6981" lon="-0.37695">
        <ele>99</ele>
        <time>2016-07-13T14:26:57+02:00</time>
      </trkpt>
      <trkpt lat="43.69797" lon="-0.3767">
        <ele>99</ele>
        <time>2016-07-13T14:27:23+02:00</time>
      </trkpt>
      <trkpt lat="43.69776" lon="-0.37659">
        <ele>97</ele>
        <time>2016-07-13T14:27:44+02:00</time>
      </trkpt>
      <trkpt lat="43.69754" lon="-0.37667">
        <ele>96</ele>
        <time>2016-07-13T14:28:10+02:00</time>
      </trkpt>
      <trkpt lat="43.69734" lon="-0.37682">
        <ele>95</ele>
        <time>2016-07-13T14:28:38+02:00</time>
      </trkpt>
      <trkpt lat="43.69711" lon="-0.37682">
        <ele>95</ele>
        <time>2016-07-13T14:29:08+02:00</time>
      </trkpt>
      <trkpt lat="43.69696" lon="-0.37659">
        <ele>95</ele>
        <time>2016-07-13T14:29:38+02:00</time>
      </trkpt>
    </trkseg>
  </trk>
</gpx>